createdAt,value
2018-09-25T10:52:33.000Z,50
2018-09-25T10:53:32.000Z,52
2018-09-25T10:54:31.000Z,52
2018-09-25T10:55:31.000Z,51
2018-09-25T10:56:30.000Z,47
2018-09-25T10:57:31.000Z,46
2018-09-25T10:58:31.000Z,44
2018-09-25T10:59:31.000Z,47
2018-09-25T11:00:31.000Z,49
2018-09-25T11:01:30.000Z,51
2018-09-25T11:02:30.000Z,52
2018-09-25T11:03:30.000Z,38
2018-09-25T11:04:31.000Z,47
2018-09-25T11:05:30.000Z,46
2018-09-25T11:06:30.000Z,47
2018-09-25T11:07:30.000Z,46
2018-09-25T11:08:30.000Z,47
2018-09-25T11:09:31.000Z,48
2018-09-25T11:10:30.000Z,47
2018-09-25T11:11:30.000Z,52
2018-09-25T11:12:30.000Z,52
2018-09-25T11:13:30.000Z,57
2018-09-25T11:14:30.000Z,57
2018-09-25T11:15:30.000Z,49
2018-09-25T11:16:29.000Z,53
2018-09-25T11:17:30.000Z,50
2018-09-25T11:18:30.000Z,51
2018-09-25T11:19:30.000Z,51
2018-09-25T11:20:30.000Z,51
2018-09-25T11:21:30.000Z,51
2018-09-25T11:22:31.000Z,47
2018-09-25T11:23:30.000Z,39
2018-09-25T11:24:30.000Z,32
2018-09-25T11:25:30.000Z,24
2018-09-25T11:26:30.000Z,20
2018-09-25T11:27:31.000Z,22
2018-09-25T11:28:30.000Z,24
2018-09-25T11:29:29.000Z,23
2018-09-25T11:30:29.000Z,28
2018-09-25T11:31:30.000Z,29
2018-09-25T11:32:31.000Z,33
2018-09-25T11:33:31.000Z,39
2018-09-25T11:34:30.000Z,40
2018-09-25T11:35:31.000Z,42
2018-09-25T11:36:31.000Z,43
2018-09-25T11:37:30.000Z,44
2018-09-25T11:38:30.000Z,44
2018-09-25T11:39:31.000Z,43
2018-09-25T11:40:30.000Z,44
2018-09-25T11:41:31.000Z,42
2018-09-25T11:42:29.000Z,44
2018-09-25T11:43:29.000Z,41
2018-09-25T11:44:31.000Z,43
2018-09-25T11:45:30.000Z,44
2018-09-25T11:46:31.000Z,45
2018-09-25T11:47:31.000Z,46
2018-09-25T11:48:31.000Z,46
2018-09-25T11:49:31.000Z,44
2018-09-25T11:50:31.000Z,46
2018-09-25T11:51:30.000Z,48
2018-09-25T11:52:30.000Z,50
2018-09-25T11:53:30.000Z,48
2018-09-25T11:54:30.000Z,49
2018-09-25T11:55:30.000Z,49
2018-09-25T11:56:30.000Z,50
2018-09-25T11:57:31.000Z,50
2018-09-25T11:58:30.000Z,50
2018-09-25T11:59:30.000Z,51
2018-09-25T12:00:30.000Z,52
2018-09-25T12:01:30.000Z,52
2018-09-25T12:02:31.000Z,52
2018-09-25T12:03:30.000Z,51
2018-09-25T12:04:30.000Z,48
2018-09-25T12:06:30.000Z,53
2018-09-25T12:07:30.000Z,53
2018-09-25T12:08:30.000Z,51
2018-09-25T12:09:31.000Z,53
2018-09-25T12:10:29.000Z,51
2018-09-25T12:11:31.000Z,51
2018-09-25T12:12:30.000Z,52
2018-09-25T12:13:30.000Z,52
2018-09-25T12:14:30.000Z,51
2018-09-25T12:15:30.000Z,49
2018-09-25T12:16:31.000Z,51
2018-09-25T12:17:31.000Z,52
2018-09-25T12:18:30.000Z,52
2018-09-25T12:19:31.000Z,52
2018-09-25T12:20:29.000Z,52
2018-09-25T12:21:31.000Z,51
2018-09-25T12:22:30.000Z,51
2018-09-25T12:23:30.000Z,52
2018-09-25T12:24:31.000Z,52
2018-09-25T12:25:30.000Z,51
2018-09-25T12:26:30.000Z,51
2018-09-25T12:27:31.000Z,50
2018-09-25T12:28:31.000Z,52
2018-09-25T12:29:30.000Z,52
2018-09-25T12:30:30.000Z,52
2018-09-25T12:31:31.000Z,51
2018-09-25T12:32:29.000Z,53
2018-09-25T12:33:29.000Z,51
2018-09-25T12:34:30.000Z,54
2018-09-25T12:35:30.000Z,51
2018-09-25T12:36:30.000Z,53
2018-09-25T12:37:30.000Z,55
2018-09-25T12:38:30.000Z,52
2018-09-25T12:39:30.000Z,52
2018-09-25T12:40:30.000Z,52
2018-09-25T12:41:30.000Z,52
2018-09-25T12:42:30.000Z,54
2018-09-25T12:43:31.000Z,51
2018-09-25T12:44:29.000Z,52
2018-09-25T12:45:31.000Z,52
2018-09-25T12:46:29.000Z,52
2018-09-25T12:47:30.000Z,50
2018-09-25T12:48:29.000Z,51
2018-09-25T12:49:30.000Z,51
2018-09-25T12:50:29.000Z,50
2018-09-25T12:51:31.000Z,51
2018-09-25T12:52:29.000Z,52
2018-09-25T12:53:31.000Z,51
2018-09-25T12:54:29.000Z,51
2018-09-25T12:55:30.000Z,50
2018-09-25T12:56:30.000Z,49
2018-09-25T12:57:31.000Z,49
2018-09-25T12:58:30.000Z,52
2018-09-25T12:59:30.000Z,52
2018-09-25T13:00:30.000Z,49
2018-09-25T13:01:31.000Z,50
2018-09-25T13:02:29.000Z,52
2018-09-25T13:03:30.000Z,52
2018-09-25T13:04:31.000Z,50
2018-09-25T13:05:31.000Z,51
2018-09-25T13:06:30.000Z,50
2018-09-25T13:07:30.000Z,52
2018-09-25T13:08:30.000Z,50
2018-09-25T13:09:31.000Z,49
2018-09-25T13:10:31.000Z,49
2018-09-25T13:11:30.000Z,50
2018-09-25T13:12:30.000Z,51
2018-09-25T13:13:31.000Z,51
2018-09-25T13:14:31.000Z,51
2018-09-25T13:15:30.000Z,50
2018-09-25T13:16:30.000Z,47
2018-09-25T13:17:31.000Z,42
2018-09-25T13:18:30.000Z,43
2018-09-25T13:19:31.000Z,45
2018-09-25T13:20:30.000Z,45
2018-09-25T13:21:30.000Z,47
2018-09-25T13:22:30.000Z,48
2018-09-25T13:23:31.000Z,47
2018-09-25T13:24:30.000Z,46
2018-09-25T13:25:31.000Z,45
2018-09-25T13:26:31.000Z,47
2018-09-25T13:27:30.000Z,47
2018-09-25T13:28:30.000Z,45
2018-09-25T13:29:30.000Z,46
2018-09-25T13:30:30.000Z,46
2018-09-25T13:31:29.000Z,50
2018-09-25T13:32:30.000Z,48
2018-09-25T13:33:30.000Z,48
2018-09-25T13:34:30.000Z,47
2018-09-25T13:35:30.000Z,44
2018-09-25T13:36:31.000Z,49
2018-09-25T13:37:30.000Z,49
2018-09-25T13:38:30.000Z,42
2018-09-25T13:39:32.000Z,47
2018-09-25T13:40:30.000Z,48
